Tennessee Colony, TX (75861)

7:26 PM CDT on March 24, 2017 (GMT -0500)
Hadley | | Change Station

Elev 370 ft 31.83 °N, 95.85 °W | Updated 7 minutes ago

Mostly Cloudy
Mostly Cloudy
69.2 °F
Feels Like 69.2 °F
N
12.0
Wind Variable Wind from South

Today
High -- | Low -- °F
--% Chance of Precip.
Yesterday
High -- | Low -- °F
Precip. -- in
Pressure 29.86 in
Visibility 10.0 miles
Clouds Scattered Clouds 3700 ft
Scattered Clouds 5000 ft
Scattered Clouds 6500 ft
Dew Point 66 °F
Humidity 88%
Rainfall 0.78 in
Snow Depth Not available.
7:21 AM 7:37 PM
Waning Crescent, 12% visible
METAR KPSN 250015Z AUTO 18010G16KT 10SM SCT037 SCT050 SCT065 20/18 A2986 RMK AO2 T02050190
Pressure 29.86 in
Visibility 10.0 miles
Clouds Scattered Clouds 3700 ft
Scattered Clouds 5000 ft
Scattered Clouds 6500 ft
Dew Point 66 °F
Humidity 88%
Rainfall 0.78 in
Snow Depth Not available.
7:21 AM 7:37 PM
Waning Crescent, 12% visible
METAR KPSN 250015Z AUTO 18010G16KT 10SM SCT037 SCT050 SCT065 20/18 A2986 RMK AO2 T02050190

Get Severe Weather Alerts

Thanks for signing up!

Be on the lookout for a verification email in your inbox.

You'll start receiving the daily forecast at 8 AM.

×

10-Day Weather Forecast

Almanac

Astronomy

Mar. 24, 2017 Rise Set
Actual Time
Civil Twilight
Nautical Twilight
Astronomical Twilight
Moon
Length of Visible Light
Length of Day
Tomorrow will be .
, % of the Moon is Illuminated

Today's Extremes

State Highs State Lows

Community

WunderPhotos

Upload Photos

1,962,540 photos uploaded!

WunderBlog® & News

Nearby

Air Quality

  Air Quality AQ Index Pollutant
Not available.

Snow Depth

Station Depth Elevation

Earthquake Activity

City Distance Mag. Time & Date
Minimum magnitude displayed is 2.5.

Earthquake Activity

City Distance Mag. Time & Date
Minimum magnitude displayed is 2.5.

Coastal Water Temperatures

Place Temperature

Stations

Nearby Weather Stations

Station Location Temp. Windchill Dew Point Humidity Wind Precip. Elev Updated Type
                   

Watches & Warnings

There are currently no watches in effect.